METAR Data
IDs: Format: Raw Decoded Include TAF

Data at: 0209 UTC 23 Sep 2018

METAR for:KEDC (Austin/Executive Arp, TX, US)
Text:KEDC 230155Z AUTO 00000KT 10SM OVC021 20/18 A2996 RMK AO2
Temperature: 20.0°C ( 68°F)
Dewpoint: 18.0°C ( 64°F) [RH = 88%]
Pressure (altimeter):29.96 inches Hg (1014.6 mb)
Winds:calm
Visibility:10 or more sm (16+ km)
Ceiling:2100 feet AGL
Clouds: overcast cloud deck at 2100 feet AGL
QC Flag:automated observation with no human augmentation